Time;durP1;ratioP1;P1;durP2;ratioP2;P2;SDS_P1;SDS_P2;PMS_P1;PMS_P2;Temp;Humidity;BMP_temperature;BMP_pressure;BME280_temperature;BME280_humidity;BME280_pressure;Samples;Min_cycle;Max_cycle;Signal;HPM_P1;HPM_P2
2022/03/03 00:00:14;;;;;;;0.47;0.47;;;0.10;99.90;;;;;;6315292;22;20429;-78
2022/03/03 00:02:41;;;;;;;0.10;0.10;;;0.20;99.90;;;;;;6318630;22;20011;-77
2022/03/03 00:05:08;;;;;;;3.53;1.90;;;0.10;99.90;;;;;;6306695;22;20035;-78
2022/03/03 00:07:34;;;;;;;0.20;0.20;;;0.20;99.90;;;;;;6316392;22;20014;-78
2022/03/03 00:10:00;;;;;;;2.15;1.02;;;0.20;99.90;;;;;;6306356;22;20011;-78
2022/03/03 00:12:26;;;;;;;3.42;3.17;;;0.20;99.90;;;;;;6305586;22;20388;-78
2022/03/03 00:14:52;;;;;;;0.52;0.52;;;0.20;99.90;;;;;;6307919;22;20021;-78
2022/03/03 00:17:17;;;;;;;0.10;0.10;;;0.20;99.90;;;;;;6317806;22;20051;-78
2022/03/03 00:19:44;;;;;;;0.75;0.75;;;0.20;99.90;;;;;;6307845;22;20003;-78
2022/03/03 00:22:11;;;;;;;6.63;2.95;;;0.30;99.90;;;;;;6317697;22;20041;-78
2022/03/03 00:24:37;;;;;;;2.83;2.55;;;0.30;99.90;;;;;;6306438;22;20007;-78
2022/03/03 00:27:05;;;;;;;1.10;1.08;;;0.30;99.90;;;;;;6306256;22;20011;-78
2022/03/03 00:29:31;;;;;;;0.82;0.82;;;0.30;99.90;;;;;;6316199;22;20015;-78
2022/03/03 00:31:57;;;;;;;0.85;0.57;;;0.30;99.90;;;;;;6316051;22;20003;-78
2022/03/03 00:34:23;;;;;;;0.10;0.10;;;0.30;99.90;;;;;;6315969;22;20426;-78
2022/03/03 00:36:49;;;;;;;0.10;0.10;;;0.20;99.90;;;;;;6316169;22;20440;-77
2022/03/03 00:39:14;;;;;;;0.68;0.68;;;0.20;99.90;;;;;;6306056;22;20018;-78
2022/03/03 00:41:40;;;;;;;2.50;2.25;;;0.20;99.90;;;;;;6317733;22;19999;-78
2022/03/03 00:44:06;;;;;;;0.55;0.55;;;0.20;99.90;;;;;;6316042;22;20349;-78
2022/03/03 00:46:38;;;;;;;0.47;0.47;;;0.20;99.90;;;;;;6307291;22;20057;-78
2022/03/03 00:49:04;;;;;;;0.10;0.10;;;0.20;99.90;;;;;;6316266;22;20014;-78
2022/03/03 00:51:31;;;;;;;0.43;0.43;;;0.10;99.90;;;;;;6305160;22;20087;-77
2022/03/03 00:53:57;;;;;;;0.35;0.35;;;0.10;99.90;;;;;;6317403;22;20385;-78
2022/03/03 00:56:22;;;;;;;2.70;1.42;;;0.10;99.90;;;;;;6315881;22;19999;-77
2022/03/03 00:58:49;;;;;;;0.57;0.57;;;0.00;99.90;;;;;;6305514;22;20012;-77
2022/03/03 01:01:15;;;;;;;1.45;1.38;;;0.00;99.90;;;;;;6315983;22;20012;-78
2022/03/03 01:03:42;;;;;;;3.20;1.05;;;-0.10;99.90;;;;;;6317429;22;20424;-77
2022/03/03 01:06:10;;;;;;;0.20;0.20;;;-0.10;99.90;;;;;;6317569;22;20007;-78
2022/03/03 01:08:36;;;;;;;2.50;1.63;;;-0.10;99.90;;;;;;6305507;22;20007;-78
2022/03/03 01:11:04;;;;;;;0.17;0.17;;;-0.20;99.90;;;;;;6307265;22;20008;-78
2022/03/03 01:13:29;;;;;;;0.65;0.50;;;-0.20;99.90;;;;;;6317067;22;20068;-80
2022/03/03 01:15:56;;;;;;;0.22;0.22;;;-0.40;99.90;;;;;;6317404;22;20011;-78
2022/03/03 01:18:22;;;;;;;0.17;0.17;;;-0.40;99.90;;;;;;6316833;22;20104;-78
2022/03/03 01:20:49;;;;;;;1.20;0.95;;;-0.40;99.90;;;;;;6317562;22;20003;-78
2022/03/03 01:23:15;;;;;;;4.07;3.00;;;-0.40;99.90;;;;;;6315534;22;20092;-78
2022/03/03 01:25:41;;;;;;;1.17;1.17;;;-0.30;99.90;;;;;;6307391;22;20082;-77
2022/03/03 01:28:07;;;;;;;2.28;2.13;;;-0.30;99.90;;;;;;6315666;22;20039;-78
2022/03/03 01:30:33;;;;;;;0.10;0.10;;;-0.30;99.90;;;;;;6315572;22;20074;-78
2022/03/03 01:32:59;;;;;;;0.15;0.15;;;-0.30;99.90;;;;;;6307155;22;20018;-77
2022/03/03 01:35:25;;;;;;;1.38;1.27;;;-0.30;99.90;;;;;;6317177;22;20512;-78
2022/03/03 01:37:50;;;;;;;0.40;0.40;;;-0.30;99.90;;;;;;6317167;22;20052;-77
2022/03/03 01:40:16;;;;;;;0.30;0.30;;;-0.40;99.90;;;;;;6317075;22;20311;-78
2022/03/03 01:42:42;;;;;;;16.08;1.92;;;-0.40;99.90;;;;;;6316930;22;20007;-78
2022/03/03 01:45:09;;;;;;;0.55;0.55;;;-0.40;99.90;;;;;;6305261;22;20046;-78
2022/03/03 01:47:34;;;;;;;1.48;0.75;;;-0.30;99.90;;;;;;6316844;22;20007;-78
2022/03/03 01:50:01;;;;;;;0.95;0.95;;;-0.30;99.90;;;;;;6316857;22;20289;-78
2022/03/03 01:52:27;;;;;;;0.65;0.65;;;-0.40;99.90;;;;;;6315262;22;20006;-78
2022/03/03 01:54:53;;;;;;;0.10;0.10;;;-0.50;99.90;;;;;;6315481;22;20137;-78
2022/03/03 01:57:21;;;;;;;0.20;0.20;;;-0.50;99.90;;;;;;6315583;22;19999;-77
2022/03/03 01:59:48;;;;;;;2.17;1.27;;;-0.40;99.90;;;;;;6307086;22;20006;-77
2022/03/03 02:02:16;;;;;;;1.85;0.57;;;-0.40;99.90;;;;;;6289960;22;20015;-78
2022/03/03 02:04:42;;;;;;;0.10;0.10;;;-0.30;99.90;;;;;;6305534;22;20053;-78
2022/03/03 02:07:10;;;;;;;1.48;1.38;;;-0.30;99.90;;;;;;6317407;22;20449;-78
2022/03/03 02:09:36;;;;;;;0.15;0.15;;;-0.30;99.90;;;;;;6315794;22;20014;-79
2022/03/03 02:12:03;;;;;;;1.58;1.48;;;-0.20;99.90;;;;;;6315713;22;20068;-78
2022/03/03 02:14:29;;;;;;;2.72;2.47;;;-0.20;99.90;;;;;;6279191;22;20575;-77
2022/03/03 02:16:55;;;;;;;1.92;1.83;;;-0.20;99.90;;;;;;6316735;22;20060;-78
2022/03/03 02:19:21;;;;;;;1.15;1.13;;;-0.20;99.90;;;;;;6306450;22;20162;-78
2022/03/03 02:21:53;;;;;;;0.73;0.73;;;-0.10;99.90;;;;;;6316495;22;20014;-78
2022/03/03 02:24:20;;;;;;;0.52;0.52;;;-0.10;99.90;;;;;;6304486;22;20057;-77
2022/03/03 02:26:47;;;;;;;0.10;0.10;;;0.00;99.90;;;;;;6289669;22;20050;-77
2022/03/03 02:29:14;;;;;;;0.43;0.43;;;0.00;99.90;;;;;;6289251;22;20033;-78
2022/03/03 02:31:40;;;;;;;0.40;0.40;;;0.00;99.90;;;;;;6315084;22;20007;-78
2022/03/03 02:34:07;;;;;;;0.40;0.40;;;0.00;99.90;;;;;;6306595;22;20007;-78
2022/03/03 02:36:32;;;;;;;0.17;0.17;;;-0.10;99.90;;;;;;6316467;22;20015;-77
2022/03/03 02:39:01;;;;;;;0.10;0.10;;;-0.10;99.90;;;;;;6316502;22;20329;-78
2022/03/03 02:41:28;;;;;;;0.93;0.93;;;-0.10;99.90;;;;;;6316383;22;20049;-79
2022/03/03 02:43:56;;;;;;;0.15;0.15;;;-0.20;99.90;;;;;;6306526;22;20007;-77
2022/03/03 02:46:22;;;;;;;0.25;0.25;;;-0.20;99.90;;;;;;6316289;22;20021;-78
2022/03/03 02:48:47;;;;;;;0.10;0.10;;;-0.20;99.90;;;;;;6314802;22;20070;-78
2022/03/03 02:51:13;;;;;;;1.10;1.10;;;-0.20;99.90;;;;;;6305961;22;20067;-78
2022/03/03 02:53:40;;;;;;;2.15;2.05;;;-0.20;99.90;;;;;;6314704;22;20018;-78
2022/03/03 02:56:07;;;;;;;0.45;0.45;;;-0.20;99.90;;;;;;6314866;22;20022;-78
2022/03/03 02:58:33;;;;;;;0.10;0.10;;;-0.30;99.90;;;;;;6306144;22;20432;-80
2022/03/03 03:01:01;;;;;;;0.50;0.50;;;-0.30;99.90;;;;;;6316105;22;20034;-80
2022/03/03 03:03:27;;;;;;;0.10;0.10;;;-0.30;99.90;;;;;;6316109;22;20003;-77
2022/03/03 03:05:53;;;;;;;0.90;0.90;;;-0.30;99.90;;;;;;6306044;22;20038;-79
2022/03/03 03:08:18;;;;;;;2.30;2.10;;;-0.30;99.90;;;;;;6316265;22;20363;-79
2022/03/03 03:10:44;;;;;;;0.20;0.20;;;-0.30;99.90;;;;;;6306073;22;20018;-78
2022/03/03 03:13:12;;;;;;;1.20;1.17;;;-0.40;99.90;;;;;;6306047;22;20309;-79
2022/03/03 03:15:39;;;;;;;0.15;0.15;;;-0.40;99.90;;;;;;6314506;22;20007;-78
2022/03/03 03:18:17;;;;;;;1.65;1.55;;;-0.50;99.90;;;;;;6314597;22;20003;-78
2022/03/03 03:20:50;;;;;;;0.20;0.20;;;-0.50;99.90;;;;;;6314628;22;20003;-79
2022/03/03 03:23:18;;;;;;;1.35;1.30;;;-0.70;99.90;;;;;;6314806;22;20007;-79
2022/03/03 03:25:44;;;;;;;0.43;0.43;;;-0.90;99.90;;;;;;6315966;22;20038;-78
2022/03/03 03:28:13;;;;;;;0.75;0.75;;;-0.90;99.90;;;;;;6314526;22;20456;-78
2022/03/03 03:30:40;;;;;;;3.33;1.85;;;-0.90;99.90;;;;;;6314444;22;20432;-76
2022/03/03 03:33:06;;;;;;;0.77;0.77;;;-0.90;99.90;;;;;;6314400;22;20281;-78
2022/03/03 03:35:33;;;;;;;1.58;1.48;;;-0.90;99.90;;;;;;6315811;22;20549;-78
2022/03/03 03:37:59;;;;;;;0.52;0.52;;;-0.90;99.90;;;;;;6305993;22;20057;-78
2022/03/03 03:40:25;;;;;;;0.30;0.30;;;-1.00;99.90;;;;;;6314361;22;20010;-78
2022/03/03 03:42:51;;;;;;;0.52;0.52;;;-1.00;99.90;;;;;;6316163;22;20007;-78
2022/03/03 03:45:17;;;;;;;0.30;0.30;;;-1.00;99.90;;;;;;6314367;22;20015;-79
2022/03/03 03:47:43;;;;;;;1.13;1.13;;;-1.10;99.90;;;;;;6305581;22;20015;-78
2022/03/03 03:50:11;;;;;;;0.38;0.38;;;-1.40;99.90;;;;;;6314134;22;20025;-77
2022/03/03 03:52:39;;;;;;;0.30;0.30;;;-1.30;99.90;;;;;;6315866;22;20036;-79
2022/03/03 03:55:07;;;;;;;0.75;0.75;;;-1.20;99.90;;;;;;6316047;22;20306;-78
2022/03/03 03:57:33;;;;;;;0.38;0.38;;;-1.20;99.90;;;;;;6314564;22;20078;-78
2022/03/03 03:59:58;;;;;;;0.10;0.10;;;-1.20;99.90;;;;;;6314437;22;20039;-78
2022/03/03 04:02:25;;;;;;;1.15;1.10;;;-1.20;99.90;;;;;;6315726;22;20018;-78
2022/03/03 04:04:51;;;;;;;1.45;1.38;;;-1.20;99.90;;;;;;6314031;22;20046;-79
2022/03/03 04:07:18;;;;;;;0.85;0.85;;;-1.20;99.90;;;;;;6304517;22;20015;-78
2022/03/03 04:09:44;;;;;;;1.40;0.85;;;-1.20;99.90;;;;;;6305607;22;20083;-78
2022/03/03 04:12:10;;;;;;;0.88;0.88;;;-1.20;99.90;;;;;;6304202;22;20007;-78
2022/03/03 04:14:37;;;;;;;4.13;2.10;;;-1.30;99.90;;;;;;6315723;22;20006;-78
2022/03/03 04:17:03;;;;;;;4.13;1.98;;;-1.30;99.90;;;;;;6315794;22;20019;-79
2022/03/03 04:19:29;;;;;;;2.00;1.85;;;-1.30;99.90;;;;;;6314191;22;20062;-78
2022/03/03 04:21:55;;;;;;;0.40;0.40;;;-1.20;99.90;;;;;;6278178;22;20018;-78
2022/03/03 04:24:20;;;;;;;0.63;0.63;;;-1.20;99.90;;;;;;6305650;22;20061;-77
2022/03/03 04:26:46;;;;;;;0.45;0.45;;;-1.20;99.90;;;;;;6314023;22;20440;-79
2022/03/03 04:29:12;;;;;;;0.77;0.77;;;-1.20;99.90;;;;;;6315663;22;20037;-78
2022/03/03 04:31:38;;;;;;;0.10;0.10;;;-1.20;99.90;;;;;;6303996;22;20003;-78
2022/03/03 04:34:03;;;;;;;3.45;1.65;;;-1.20;99.90;;;;;;6315773;22;20351;-78
2022/03/03 04:36:29;;;;;;;0.38;0.38;;;-1.20;99.90;;;;;;6314089;22;20007;-78
2022/03/03 04:38:55;;;;;;;1.23;0.80;;;-1.20;99.90;;;;;;6315997;22;20092;-77
2022/03/03 04:41:21;;;;;;;0.50;0.45;;;-1.10;99.90;;;;;;6304073;22;20324;-77
2022/03/03 04:43:47;;;;;;;0.10;0.10;;;-1.10;99.90;;;;;;6305666;22;20015;-78
2022/03/03 04:46:13;;;;;;;2.20;1.95;;;-1.10;99.90;;;;;;6316454;22;20007;-77
2022/03/03 04:48:39;;;;;;;0.20;0.20;;;-1.20;99.90;;;;;;6279886;22;20017;-78
2022/03/03 04:51:05;;;;;;;0.25;0.25;;;-1.20;99.90;;;;;;6305397;22;20026;-77
2022/03/03 04:53:31;;;;;;;1.23;1.08;;;-1.20;99.90;;;;;;6315988;22;20454;-78
2022/03/03 04:55:58;;;;;;;0.30;0.30;;;-1.20;99.90;;;;;;6316456;22;20007;-78
2022/03/03 04:58:24;;;;;;;0.35;0.35;;;-1.20;99.90;;;;;;6318623;22;20014;-78
2022/03/03 05:00:51;;;;;;;1.65;1.55;;;-1.10;99.90;;;;;;6316092;22;20355;-77
2022/03/03 05:03:17;;;;;;;0.70;0.68;;;-1.10;99.90;;;;;;6317300;22;20007;-76
2022/03/03 05:05:43;;;;;;;0.20;0.20;;;-1.10;99.90;;;;;;6308008;22;20509;-74
2022/03/03 05:08:09;;;;;;;0.43;0.43;;;-1.20;99.90;;;;;;6254222;22;20408;-71
2022/03/03 05:10:35;;;;;;;0.20;0.20;;;-1.20;99.90;;;;;;6305117;22;20056;-74
2022/03/03 05:13:01;;;;;;;0.10;0.10;;;-1.30;99.90;;;;;;6307234;22;20015;-77
2022/03/03 05:15:27;;;;;;;2.22;1.83;;;-1.30;99.90;;;;;;6317462;22;20011;-79
2022/03/03 05:17:53;;;;;;;0.68;0.68;;;-1.30;99.90;;;;;;6317507;22;20007;-78
2022/03/03 05:20:19;;;;;;;1.17;1.15;;;-1.30;99.90;;;;;;6307410;22;20003;-77
2022/03/03 05:22:45;;;;;;;0.35;0.35;;;-1.40;99.90;;;;;;6317303;22;20022;-78
2022/03/03 05:25:11;;;;;;;3.38;3.08;;;-1.40;99.90;;;;;;6306985;22;20004;-74
2022/03/03 05:27:40;;;;;;;0.20;0.20;;;-1.40;99.90;;;;;;6317171;22;20022;-74
2022/03/03 05:30:07;;;;;;;0.75;0.75;;;-1.50;99.90;;;;;;6306050;22;20427;-75
2022/03/03 05:32:33;;;;;;;0.45;0.45;;;-1.50;99.90;;;;;;6316772;22;20015;-74
2022/03/03 05:34:59;;;;;;;1.45;1.35;;;-1.50;99.90;;;;;;6317098;22;20007;-72
2022/03/03 05:37:25;;;;;;;0.40;0.40;;;-1.50;99.90;;;;;;6316806;22;20386;-72
2022/03/03 05:39:54;;;;;;;0.28;0.28;;;-1.50;99.90;;;;;;6317054;22;20066;-70
2022/03/03 05:42:23;;;;;;;0.50;0.50;;;-1.50;99.90;;;;;;6316788;22;20007;-73
2022/03/03 05:44:50;;;;;;;4.25;2.47;;;-1.60;99.90;;;;;;6306747;22;20491;-71
2022/03/03 05:47:17;;;;;;;0.80;0.80;;;-1.60;99.90;;;;;;6316538;22;20064;-73
2022/03/03 05:49:45;;;;;;;1.70;1.27;;;-1.60;99.90;;;;;;6306085;22;20007;-73
2022/03/03 05:52:13;;;;;;;1.40;0.68;;;-1.60;99.90;;;;;;6316316;22;20035;-73
2022/03/03 05:54:40;;;;;;;0.80;0.80;;;-1.50;99.90;;;;;;6316748;22;20424;-73
2022/03/03 05:57:17;;;;;;;1.55;1.45;;;-1.60;99.90;;;;;;6315082;22;20011;-66
2022/03/03 05:59:43;;;;;;;0.30;0.30;;;-1.60;99.90;;;;;;6316801;22;20015;-67
2022/03/03 06:02:10;;;;;;;0.20;0.20;;;-1.40;99.90;;;;;;6306653;22;20011;-69
2022/03/03 06:04:39;;;;;;;0.30;0.30;;;-1.40;99.90;;;;;;6316612;22;20003;-64
2022/03/03 06:07:10;;;;;;;7.28;0.98;;;-1.30;99.90;;;;;;6316568;22;20013;-71
2022/03/03 06:09:37;;;;;;;7.65;2.05;;;-1.30;99.90;;;;;;6306225;22;20428;-74
2022/03/03 06:12:37;;;;;;;1.42;0.95;;;-1.30;99.90;;;;;;6316375;22;20015;-74
2022/03/03 06:15:05;;;;;;;1.40;1.33;;;-1.30;99.90;;;;;;6306345;22;20023;-73
2022/03/03 06:17:34;;;;;;;2.45;2.28;;;-1.30;99.90;;;;;;6306274;22;20500;-73
2022/03/03 06:20:01;;;;;;;1.60;1.50;;;-1.30;99.90;;;;;;6316540;22;20340;-74
2022/03/03 06:22:27;;;;;;;0.43;0.43;;;-1.30;99.90;;;;;;6304453;22;20486;-73
2022/03/03 06:24:53;;;;;;;0.20;0.20;;;-1.30;99.90;;;;;;6306244;22;20324;-74
2022/03/03 06:27:19;;;;;;;0.45;0.45;;;-1.20;99.90;;;;;;6316730;22;20011;-81
2022/03/03 06:29:45;;;;;;;0.75;0.75;;;-1.20;99.90;;;;;;6306457;22;20007;-69
2022/03/03 06:32:13;;;;;;;0.50;0.50;;;-1.20;99.90;;;;;;6316491;22;20003;-75
2022/03/03 06:34:39;;;;;;;0.30;0.30;;;-1.10;99.90;;;;;;6306294;22;20503;-77
2022/03/03 06:37:06;;;;;;;0.57;0.57;;;-1.10;99.90;;;;;;6315905;22;20019;-77
2022/03/03 06:39:31;;;;;;;4.05;3.70;;;-1.10;99.90;;;;;;6315602;22;20082;-76
2022/03/03 06:41:57;;;;;;;4.82;4.40;;;-1.10;99.90;;;;;;6306342;22;20387;-71
2022/03/03 06:44:23;;;;;;;26.58;2.35;;;-1.10;99.90;;;;;;6316225;22;20379;-77
2022/03/03 06:46:49;;;;;;;1.60;1.50;;;-0.90;99.90;;;;;;6304320;22;20007;-76
2022/03/03 06:49:15;;;;;;;0.93;0.93;;;-1.00;99.90;;;;;;6316413;22;20373;-77
2022/03/03 06:51:47;;;;;;;6.38;5.28;;;-1.00;99.90;;;;;;6305638;22;20035;-76
2022/03/03 06:54:17;;;;;;;1.48;1.35;;;-1.00;99.90;;;;;;6306338;22;20014;-79
2022/03/03 06:56:58;;;;;;;2.83;2.40;;;-1.10;99.90;;;;;;6314222;22;20018;-77
2022/03/03 06:59:29;;;;;;;7.32;2.90;;;-1.10;99.90;;;;;;6304131;22;20023;-77
2022/03/03 07:01:56;;;;;;;2.08;1.98;;;-1.20;99.90;;;;;;6316065;22;20007;-77
2022/03/03 07:04:26;;;;;;;0.40;0.40;;;-1.20;99.90;;;;;;6316217;22;20003;-76
2022/03/03 07:06:52;;;;;;;0.20;0.20;;;-1.20;99.90;;;;;;6305463;22;20444;-74
2022/03/03 07:09:19;;;;;;;0.95;0.93;;;-1.30;99.90;;;;;;6305973;22;20032;-74
2022/03/03 07:11:46;;;;;;;1.48;1.38;;;-1.30;99.90;;;;;;6315574;22;20007;-75
2022/03/03 07:14:13;;;;;;;0.10;0.10;;;-1.20;99.90;;;;;;6263446;22;20043;-76
2022/03/03 07:16:42;;;;;;;0.10;0.10;;;-1.20;99.90;;;;;;6314376;22;20082;-75
2022/03/03 07:19:34;;;;;;;1.27;1.25;;;-1.20;99.90;;;;;;6315958;22;20352;-74
2022/03/03 07:22:22;;;;;;;1.85;1.10;;;-1.10;99.90;;;;;;6296656;22;20011;-75
2022/03/03 07:25:05;;;;;;;0.20;0.20;;;-1.00;99.90;;;;;;6305859;22;20007;-77
2022/03/03 07:27:31;;;;;;;1.27;1.23;;;-1.00;99.90;;;;;;6315965;22;20003;-77
2022/03/03 07:30:02;;;;;;;0.63;0.63;;;-1.00;99.90;;;;;;6314066;22;20014;-76
2022/03/03 07:32:39;;;;;;;0.63;0.63;;;-0.90;99.90;;;;;;6305825;22;20011;-75
2022/03/03 07:35:10;;;;;;;0.20;0.20;;;-0.90;99.90;;;;;;6305858;22;20060;-76
2022/03/03 07:37:52;;;;;;;0.20;0.20;;;-0.80;99.90;;;;;;6303731;22;20033;-75
2022/03/03 07:40:17;;;;;;;;;;;-0.70;99.90;;;;;;6304882;22;20485;-77
2022/03/03 07:42:45;;;;;;;0.10;0.10;;;-0.70;99.90;;;;;;6316430;22;19930;-76
2022/03/03 07:45:11;;;;;;;2.20;1.35;;;-0.60;99.90;;;;;;6316229;22;20034;-77
2022/03/03 07:47:39;;;;;;;3.13;1.95;;;-0.50;99.90;;;;;;6306118;22;20060;-77
2022/03/03 07:50:06;;;;;;;0.95;0.95;;;-0.40;99.90;;;;;;6315599;22;20512;-77
2022/03/03 07:52:32;;;;;;;0.30;0.30;;;-0.20;99.90;;;;;;6304309;22;20019;-77
2022/03/03 07:54:59;;;;;;;2.83;1.48;;;-0.10;99.90;;;;;;6315761;22;20003;-77
2022/03/03 07:57:34;;;;;;;0.80;0.68;;;-0.10;99.90;;;;;;6304102;22;20027;-76
2022/03/03 08:00:10;;;;;;;0.40;0.40;;;0.00;99.90;;;;;;6305809;22;20007;-75
2022/03/03 08:02:38;;;;;;;0.43;0.43;;;0.10;99.90;;;;;;6305461;22;20008;-76
2022/03/03 08:05:05;;;;;;;0.82;0.75;;;0.10;99.90;;;;;;6314245;22;20011;-76
2022/03/03 08:07:40;;;;;;;0.32;0.32;;;0.20;99.90;;;;;;6304051;22;20007;-75
2022/03/03 08:10:08;;;;;;;3.67;1.23;;;0.30;99.90;;;;;;6304300;22;20034;-76
2022/03/03 08:12:35;;;;;;;0.52;0.43;;;0.40;99.90;;;;;;6313988;22;20045;-75
2022/03/03 08:15:01;;;;;;;0.30;0.30;;;0.40;99.90;;;;;;6315921;22;20358;-76
2022/03/03 08:17:27;;;;;;;0.45;0.45;;;0.50;99.90;;;;;;6315712;22;20038;-76
2022/03/03 08:19:56;;;;;;;0.30;0.30;;;0.70;99.90;;;;;;6305531;22;20003;-76
2022/03/03 08:22:26;;;;;;;1.88;0.98;;;0.80;99.90;;;;;;6317549;22;20050;-76
2022/03/03 08:24:56;;;;;;;0.10;0.10;;;1.00;99.90;;;;;;6305744;22;20014;-76
2022/03/03 08:27:25;;;;;;;0.50;0.50;;;1.10;99.90;;;;;;6317774;22;20014;-76
2022/03/03 08:29:52;;;;;;;2.00;1.90;;;1.20;99.90;;;;;;6307476;22;20019;-76
2022/03/03 08:32:21;;;;;;;0.55;0.50;;;1.30;99.90;;;;;;6307177;22;20011;-77
2022/03/03 08:35:13;;;;;;;2.20;1.15;;;1.50;99.90;;;;;;6317509;22;20443;-76
2022/03/03 08:37:43;;;;;;;0.47;0.47;;;1.60;99.90;;;;;;6280000;22;20053;-76
2022/03/03 08:40:14;;;;;;;1.30;1.25;;;1.70;99.90;;;;;;6317633;22;20078;-76
2022/03/03 08:42:56;;;;;;;2.38;0.80;;;1.70;99.90;;;;;;6316295;22;20007;-77
2022/03/03 08:45:23;;;;;;;1.75;1.65;;;1.80;99.90;;;;;;6281931;22;20011;-76
2022/03/03 08:48:06;;;;;;;0.30;0.30;;;1.90;99.90;;;;;;6315928;22;20007;-77
2022/03/03 08:50:35;;;;;;;0.90;0.90;;;2.10;99.90;;;;;;6307302;22;20015;-76
2022/03/03 08:53:04;;;;;;;0.73;0.73;;;2.10;99.90;;;;;;6317237;22;20075;-77
2022/03/03 08:55:32;;;;;;;4.72;3.53;;;2.30;99.90;;;;;;6317114;22;20401;-76
2022/03/03 08:57:58;;;;;;;1.60;1.50;;;2.30;99.90;;;;;;6306945;22;20021;-76
2022/03/03 09:00:26;;;;;;;0.28;0.28;;;2.40;99.90;;;;;;6317285;22;20428;-76
2022/03/03 09:02:52;;;;;;;1.85;1.75;;;2.40;99.90;;;;;;6305831;22;20087;-75
2022/03/03 09:05:19;;;;;;;0.55;0.55;;;2.50;99.90;;;;;;6315849;22;20488;-76
2022/03/03 09:07:46;;;;;;;0.38;0.32;;;2.60;99.90;;;;;;6315913;22;20007;-76
2022/03/03 09:10:13;;;;;;;0.80;0.80;;;2.70;99.90;;;;;;6317439;22;20015;-76
2022/03/03 09:12:40;;;;;;;0.47;0.43;;;2.90;99.90;;;;;;6315794;22;20061;-76
2022/03/03 09:15:08;;;;;;;4.90;1.35;;;3.00;99.90;;;;;;6305388;22;20432;-78
2022/03/03 09:17:35;;;;;;;0.10;0.10;;;3.10;99.90;;;;;;6305893;22;20020;-77
2022/03/03 09:20:06;;;;;;;1.95;1.85;;;3.20;99.90;;;;;;6304974;22;20004;-78
2022/03/03 09:22:32;;;;;;;2.72;1.55;;;3.30;99.90;;;;;;6306813;22;20336;-77
2022/03/03 09:24:58;;;;;;;5.43;3.25;;;3.40;99.90;;;;;;6316790;22;20027;-77
2022/03/03 09:27:25;;;;;;;2.30;1.08;;;3.60;99.90;;;;;;6306888;22;20007;-77
2022/03/03 09:29:51;;;;;;;0.73;0.73;;;3.80;99.90;;;;;;6304893;22;20003;-77
2022/03/03 09:32:17;;;;;;;1.10;0.85;;;3.90;99.90;;;;;;6306578;22;20569;-77
2022/03/03 09:34:45;;;;;;;0.28;0.28;;;4.00;99.90;;;;;;6306787;22;20011;-77
2022/03/03 09:37:15;;;;;;;0.30;0.30;;;4.20;99.90;;;;;;6305646;22;20035;-77
2022/03/03 09:39:42;;;;;;;0.30;0.30;;;4.30;99.90;;;;;;6316869;22;20367;-77
2022/03/03 09:42:10;;;;;;;0.32;0.32;;;4.40;99.90;;;;;;6306942;22;20007;-78
2022/03/03 09:44:36;;;;;;;3.22;2.08;;;4.60;99.90;;;;;;6315438;22;20007;-77
2022/03/03 09:47:03;;;;;;;0.10;0.10;;;4.70;99.90;;;;;;6306779;22;20038;-78
2022/03/03 09:49:29;;;;;;;0.93;0.93;;;4.90;99.90;;;;;;6316451;22;20044;-77
2022/03/03 09:51:55;;;;;;;0.13;0.13;;;5.00;99.90;;;;;;6278750;22;20015;-76
2022/03/03 09:54:21;;;;;;;1.70;1.60;;;5.10;99.90;;;;;;6316874;22;20078;-76
2022/03/03 09:56:47;;;;;;;0.47;0.47;;;5.40;99.90;;;;;;6306449;22;20007;-77
2022/03/03 09:59:13;;;;;;;1.15;1.13;;;5.60;99.90;;;;;;6306931;22;20011;-77
2022/03/03 10:01:39;;;;;;;1.27;1.17;;;5.80;99.90;;;;;;6306923;22;20316;-76
2022/03/03 10:04:24;;;;;;;0.28;0.28;;;5.80;99.90;;;;;;6306891;22;20003;-76
2022/03/03 10:06:50;;;;;;;0.40;0.40;;;6.00;99.90;;;;;;6316863;22;20038;-78
2022/03/03 10:09:17;;;;;;;0.60;0.60;;;6.10;99.10;;;;;;6304903;22;20007;-78
2022/03/03 10:12:06;;;;;;;1.45;1.30;;;6.20;99.30;;;;;;6304990;22;20010;-77
2022/03/03 10:14:36;;;;;;;0.30;0.30;;;6.30;99.00;;;;;;6315116;22;20015;-78
2022/03/03 10:17:04;;;;;;;0.82;0.82;;;6.50;98.80;;;;;;6315316;22;20013;-79
2022/03/03 10:19:29;;;;;;;2.53;2.00;;;6.60;98.70;;;;;;6315330;22;20011;-78
2022/03/03 10:21:55;;;;;;;0.52;0.52;;;6.70;98.20;;;;;;6306658;22;20091;-77
2022/03/03 10:24:29;;;;;;;2.25;1.95;;;6.90;97.50;;;;;;6316702;22;20011;-77
2022/03/03 10:27:01;;;;;;;1.58;1.48;;;7.10;97.10;;;;;;6315019;22;20018;-76
2022/03/03 10:29:30;;;;;;;2.25;2.10;;;7.30;97.10;;;;;;6315155;22;20046;-76
2022/03/03 10:31:58;;;;;;;1.48;1.38;;;7.50;96.40;;;;;;6316271;22;20018;-77
2022/03/03 10:34:32;;;;;;;0.40;0.40;;;7.60;96.00;;;;;;6306712;22;20011;-76
2022/03/03 10:37:08;;;;;;;0.52;0.52;;;7.90;95.30;;;;;;6316484;22;20021;-77
2022/03/03 10:39:48;;;;;;;0.65;0.65;;;7.90;95.10;;;;;;6316915;22;19999;-77
2022/03/03 10:42:19;;;;;;;1.13;1.10;;;7.80;94.20;;;;;;6316630;22;20027;-77
2022/03/03 10:44:47;;;;;;;1.48;1.27;;;8.00;94.20;;;;;;6316118;22;20007;-78
2022/03/03 10:47:21;;;;;;;0.88;0.88;;;8.40;94.30;;;;;;6315003;22;20003;-70
2022/03/03 10:49:49;;;;;;;0.47;0.47;;;8.70;93.40;;;;;;6314741;22;20019;-73
2022/03/03 10:52:27;;;;;;;1.77;1.67;;;8.90;92.10;;;;;;6306215;22;20009;-77
2022/03/03 10:55:12;;;;;;;1.65;1.45;;;8.70;92.30;;;;;;6314224;22;20015;-78
2022/03/03 10:57:45;;;;;;;1.35;1.25;;;8.80;91.60;;;;;;6315729;22;20026;-74
2022/03/03 11:00:19;;;;;;;1.58;1.48;;;9.20;92.00;;;;;;6314509;22;20011;-77
2022/03/03 11:02:50;;;;;;;0.65;0.65;;;9.20;91.60;;;;;;6306068;22;20000;-79
2022/03/03 11:05:19;;;;;;;4.05;1.95;;;9.60;90.90;;;;;;6306359;22;20061;-76
2022/03/03 11:07:47;;;;;;;0.70;0.70;;;9.60;90.90;;;;;;6306186;22;20140;-73
2022/03/03 11:10:16;;;;;;;3.20;2.60;;;10.00;91.20;;;;;;6316131;22;20011;-77
2022/03/03 11:12:44;;;;;;;2.50;2.03;;;10.50;90.40;;;;;;6306145;22;20102;-78
2022/03/03 11:15:13;;;;;;;1.35;1.20;;;10.70;88.80;;;;;;6315954;22;20003;-77
2022/03/03 11:17:42;;;;;;;1.98;1.85;;;11.40;87.70;;;;;;6305694;22;19999;-77
2022/03/03 11:20:12;;;;;;;2.30;2.10;;;10.90;85.80;;;;;;6314446;22;20010;-76
2022/03/03 11:22:38;;;;;;;13.52;5.53;;;11.70;84.60;;;;;;6305974;22;20007;-76
2022/03/03 11:25:34;;;;;;;0.88;0.85;;;10.80;86.30;;;;;;6315663;22;20013;-77
2022/03/03 11:28:10;;;;;;;0.45;0.45;;;11.30;87.90;;;;;;6296266;22;20018;-77
2022/03/03 11:30:37;;;;;;;3.45;2.50;;;11.10;85.70;;;;;;6305017;22;20090;-77
2022/03/03 11:33:35;;;;;;;0.08;0.08;;;11.30;90.30;;;;;;6304242;22;20421;-77
2022/03/03 11:36:05;;;;;;;0.90;0.90;;;11.70;79.40;;;;;;6292616;22;20004;-77
2022/03/03 11:39:01;;;;;;;4.63;2.38;;;12.70;78.30;;;;;;6304939;22;20011;-77
2022/03/03 11:41:49;;;;;;;1.05;0.95;;;13.00;74.40;;;;;;6304535;22;20015;-76
2022/03/03 11:44:15;;;;;;;1.77;1.42;;;13.10;72.30;;;;;;6314511;22;20031;-77
2022/03/03 11:46:51;;;;;;;1.55;1.33;;;14.60;70.70;;;;;;6315929;22;20374;-77
2022/03/03 11:49:27;;;;;;;4.75;1.50;;;14.80;65.00;;;;;;6278742;22;20025;-77
2022/03/03 11:52:07;;;;;;;6.32;1.85;;;14.40;66.20;;;;;;6303825;22;20022;-78
2022/03/03 11:54:33;;;;;;;3.53;2.88;;;13.00;65.30;;;;;;6305089;22;20015;-77
2022/03/03 11:57:08;;;;;;;2.58;1.45;;;11.60;70.70;;;;;;6317653;22;20424;-79
2022/03/03 11:59:34;;;;;;;2.67;1.60;;;13.20;70.20;;;;;;6309311;22;20011;-77
2022/03/03 12:02:01;;;;;;;1.80;1.35;;;12.90;67.10;;;;;;6319152;22;20428;-76
2022/03/03 12:04:29;;;;;;;1.08;0.98;;;14.30;67.80;;;;;;6309497;22;20063;-77
2022/03/03 12:06:55;;;;;;;2.85;1.88;;;13.70;65.70;;;;;;6319358;22;20444;-78
2022/03/03 12:09:26;;;;;;;2.40;2.22;;;14.70;67.40;;;;;;6319729;22;20014;-78
2022/03/03 12:12:13;;;;;;;;;;;15.30;65.80;;;;;;6318202;22;20386;-78
2022/03/03 12:15:01;;;;;;;1.52;1.10;;;15.10;63.40;;;;;;6308039;22;20232;-78
2022/03/03 12:17:58;;;;;;;6.55;2.28;;;15.90;60.70;;;;;;6308002;22;20021;-78
2022/03/03 12:20:24;;;;;;;1.60;1.10;;;17.10;60.20;;;;;;6309710;22;20019;-79
2022/03/03 12:23:18;;;;;;;7.53;1.42;;;16.50;59.10;;;;;;6309181;22;20003;-76
2022/03/03 12:25:50;;;;;;;10.48;1.67;;;14.70;61.40;;;;;;6309203;22;20008;-77
2022/03/03 12:28:45;;;;;;;5.90;2.38;;;15.40;62.00;;;;;;6309130;22;20416;-78
2022/03/03 12:31:30;;;;;;;1.13;1.02;;;16.80;59.20;;;;;;6319022;22;20015;-78
2022/03/03 12:34:08;;;;;;;1.40;1.30;;;16.60;56.30;;;;;;6309287;22;20022;-77
2022/03/03 12:36:38;;;;;;;1.75;1.65;;;16.80;57.10;;;;;;6308845;22;20380;-78
2022/03/03 12:39:06;;;;;;;7.25;2.50;;;16.60;57.60;;;;;;6319149;22;20470;-79
2022/03/03 12:41:33;;;;;;;1.48;1.17;;;17.10;56.60;;;;;;6319025;22;20011;-79
2022/03/03 12:44:07;;;;;;;2.67;1.80;;;16.90;57.70;;;;;;6309369;22;20011;-79
2022/03/03 12:46:34;;;;;;;3.38;2.63;;;16.90;56.10;;;;;;6319168;22;20090;-77
2022/03/03 12:49:13;;;;;;;3.47;2.13;;;16.60;56.20;;;;;;6317871;22;20030;-78
2022/03/03 12:51:45;;;;;;;4.63;1.58;;;16.00;56.10;;;;;;6308928;22;20003;-78
2022/03/03 12:54:11;;;;;;;1.30;1.20;;;16.70;54.70;;;;;;6307895;22;20004;-78
2022/03/03 12:56:37;;;;;;;4.55;2.25;;;17.60;54.10;;;;;;6308933;22;20014;-78
2022/03/03 12:59:09;;;;;;;0.77;0.77;;;17.30;52.20;;;;;;6308996;22;20033;-78